sensor_id;sensor_type;location;lat;lon;timestamp;P1;durP1;ratioP1;P2;durP2;ratioP2
51985;SDS011;38002;53.296;6.600;2022-12-31T00:01:45;11.73;;;2.47;;
51985;SDS011;38002;53.296;6.600;2022-12-31T00:06:46;11.95;;;2.53;;
51985;SDS011;38002;53.296;6.600;2022-12-31T00:11:46;10.00;;;1.90;;
51985;SDS011;38002;53.296;6.600;2022-12-31T00:16:47;12.63;;;2.28;;
51985;SDS011;38002;53.296;6.600;2022-12-31T00:21:47;11.50;;;2.00;;
51985;SDS011;38002;53.296;6.600;2022-12-31T00:26:48;13.10;;;2.35;;
51985;SDS011;38002;53.296;6.600;2022-12-31T00:31:48;17.45;;;2.65;;
51985;SDS011;38002;53.296;6.600;2022-12-31T00:36:49;9.95;;;2.35;;
51985;SDS011;38002;53.296;6.600;2022-12-31T00:41:49;12.85;;;2.70;;
51985;SDS011;38002;53.296;6.600;2022-12-31T00:46:50;15.70;;;3.03;;
51985;SDS011;38002;53.296;6.600;2022-12-31T00:51:50;13.85;;;2.72;;
51985;SDS011;38002;53.296;6.600;2022-12-31T00:56:50;15.88;;;3.28;;
51985;SDS011;38002;53.296;6.600;2022-12-31T01:01:51;16.63;;;3.78;;
51985;SDS011;38002;53.296;6.600;2022-12-31T01:06:51;15.88;;;2.95;;
51985;SDS011;38002;53.296;6.600;2022-12-31T01:11:52;11.30;;;3.08;;
51985;SDS011;38002;53.296;6.600;2022-12-31T01:16:52;14.43;;;3.92;;
51985;SDS011;38002;53.296;6.600;2022-12-31T01:21:53;21.55;;;3.50;;
51985;SDS011;38002;53.296;6.600;2022-12-31T01:26:54;12.25;;;2.47;;
51985;SDS011;38002;53.296;6.600;2022-12-31T01:31:56;11.73;;;2.60;;
51985;SDS011;38002;53.296;6.600;2022-12-31T01:36:57;11.90;;;2.60;;
51985;SDS011;38002;53.296;6.600;2022-12-31T01:41:57;13.82;;;3.25;;
51985;SDS011;38002;53.296;6.600;2022-12-31T01:46:59;12.05;;;2.70;;
51985;SDS011;38002;53.296;6.600;2022-12-31T01:57:05;10.73;;;2.78;;
51985;SDS011;38002;53.296;6.600;2022-12-31T02:02:07;10.90;;;3.22;;
51985;SDS011;38002;53.296;6.600;2022-12-31T02:07:08;11.90;;;3.03;;
51985;SDS011;38002;53.296;6.600;2022-12-31T02:12:09;13.55;;;3.00;;
51985;SDS011;38002;53.296;6.600;2022-12-31T02:38:33;12.13;;;3.50;;
51985;SDS011;38002;53.296;6.600;2022-12-31T02:43:44;13.50;;;3.50;;
51985;SDS011;38002;53.296;6.600;2022-12-31T02:48:48;10.65;;;2.83;;
51985;SDS011;38002;53.296;6.600;2022-12-31T02:53:59;7.20;;;2.90;;
51985;SDS011;38002;53.296;6.600;2022-12-31T02:59:20;9.30;;;3.00;;
51985;SDS011;38002;53.296;6.600;2022-12-31T03:04:53;6.13;;;2.70;;
51985;SDS011;38002;53.296;6.600;2022-12-31T03:09:55;3.55;;;2.42;;
51985;SDS011;38002;53.296;6.600;2022-12-31T03:14:56;8.02;;;2.88;;
51985;SDS011;38002;53.296;6.600;2022-12-31T03:19:57;7.37;;;2.73;;
51985;SDS011;38002;53.296;6.600;2022-12-31T03:25:16;6.82;;;1.83;;
51985;SDS011;38002;53.296;6.600;2022-12-31T03:30:39;6.60;;;2.07;;
51985;SDS011;38002;53.296;6.600;2022-12-31T03:35:42;8.30;;;2.35;;
51985;SDS011;38002;53.296;6.600;2022-12-31T03:40:45;4.38;;;1.70;;
51985;SDS011;38002;53.296;6.600;2022-12-31T03:45:51;6.53;;;1.80;;
51985;SDS011;38002;53.296;6.600;2022-12-31T03:50:53;2.97;;;1.05;;
51985;SDS011;38002;53.296;6.600;2022-12-31T03:55:53;11.63;;;1.48;;
51985;SDS011;38002;53.296;6.600;2022-12-31T04:00:54;1.80;;;0.95;;
51985;SDS011;38002;53.296;6.600;2022-12-31T04:05:54;6.22;;;1.10;;
51985;SDS011;38002;53.296;6.600;2022-12-31T04:10:55;6.30;;;1.40;;
51985;SDS011;38002;53.296;6.600;2022-12-31T04:15:55;4.53;;;1.05;;
51985;SDS011;38002;53.296;6.600;2022-12-31T04:21:00;7.00;;;1.08;;
51985;SDS011;38002;53.296;6.600;2022-12-31T04:26:04;3.17;;;1.10;;
51985;SDS011;38002;53.296;6.600;2022-12-31T04:31:04;2.42;;;0.77;;
51985;SDS011;38002;53.296;6.600;2022-12-31T04:36:06;7.90;;;1.10;;
51985;SDS011;38002;53.296;6.600;2022-12-31T04:46:18;4.55;;;1.40;;
51985;SDS011;38002;53.296;6.600;2022-12-31T04:51:20;1.63;;;0.90;;
51985;SDS011;38002;53.296;6.600;2022-12-31T04:56:21;3.83;;;1.97;;
51985;SDS011;38002;53.296;6.600;2022-12-31T05:01:22;6.05;;;1.35;;
51985;SDS011;38002;53.296;6.600;2022-12-31T05:06:23;3.47;;;1.50;;
51985;SDS011;38002;53.296;6.600;2022-12-31T05:11:23;10.98;;;1.85;;
51985;SDS011;38002;53.296;6.600;2022-12-31T05:16:24;2.85;;;1.63;;
51985;SDS011;38002;53.296;6.600;2022-12-31T05:21:24;4.47;;;2.10;;
51985;SDS011;38002;53.296;6.600;2022-12-31T05:26:25;4.28;;;2.00;;
51985;SDS011;38002;53.296;6.600;2022-12-31T05:31:25;7.13;;;2.00;;
51985;SDS011;38002;53.296;6.600;2022-12-31T05:36:26;9.95;;;2.20;;
51985;SDS011;38002;53.296;6.600;2022-12-31T05:41:26;8.70;;;2.53;;
51985;SDS011;38002;53.296;6.600;2022-12-31T05:46:27;6.18;;;2.20;;
51985;SDS011;38002;53.296;6.600;2022-12-31T05:51:27;6.43;;;2.28;;
51985;SDS011;38002;53.296;6.600;2022-12-31T05:56:27;7.75;;;2.33;;
51985;SDS011;38002;53.296;6.600;2022-12-31T06:01:28;7.28;;;1.90;;
51985;SDS011;38002;53.296;6.600;2022-12-31T06:06:28;5.82;;;2.20;;
51985;SDS011;38002;53.296;6.600;2022-12-31T06:11:29;4.45;;;1.60;;
51985;SDS011;38002;53.296;6.600;2022-12-31T06:16:29;8.43;;;2.05;;
51985;SDS011;38002;53.296;6.600;2022-12-31T06:21:30;6.97;;;1.73;;
51985;SDS011;38002;53.296;6.600;2022-12-31T06:26:30;2.15;;;1.15;;
51985;SDS011;38002;53.296;6.600;2022-12-31T06:31:31;6.30;;;1.50;;
51985;SDS011;38002;53.296;6.600;2022-12-31T06:36:31;3.58;;;1.08;;
51985;SDS011;38002;53.296;6.600;2022-12-31T06:41:32;2.28;;;1.17;;
51985;SDS011;38002;53.296;6.600;2022-12-31T06:46:32;3.95;;;1.55;;
51985;SDS011;38002;53.296;6.600;2022-12-31T06:51:32;7.93;;;1.38;;
51985;SDS011;38002;53.296;6.600;2022-12-31T06:56:34;2.35;;;1.27;;
51985;SDS011;38002;53.296;6.600;2022-12-31T07:12:01;3.72;;;1.40;;
51985;SDS011;38002;53.296;6.600;2022-12-31T07:22:25;3.25;;;1.20;;
51985;SDS011;38002;53.296;6.600;2022-12-31T07:38:02;2.40;;;2.20;;
51985;SDS011;38002;53.296;6.600;2022-12-31T07:43:10;3.08;;;2.58;;
51985;SDS011;38002;53.296;6.600;2022-12-31T07:48:21;2.72;;;2.53;;
51985;SDS011;38002;53.296;6.600;2022-12-31T07:53:24;5.40;;;2.97;;
51985;SDS011;38002;53.296;6.600;2022-12-31T08:09:00;3.83;;;2.70;;
51985;SDS011;38002;53.296;6.600;2022-12-31T08:14:07;2.95;;;2.75;;
51985;SDS011;38002;53.296;6.600;2022-12-31T08:19:30;2.20;;;2.00;;
51985;SDS011;38002;53.296;6.600;2022-12-31T08:30:01;2.17;;;2.00;;
51985;SDS011;38002;53.296;6.600;2022-12-31T08:40:46;1.83;;;1.50;;
51985;SDS011;38002;53.296;6.600;2022-12-31T08:45:53;2.95;;;1.50;;
51985;SDS011;38002;53.296;6.600;2022-12-31T08:50:57;1.73;;;1.33;;
51985;SDS011;38002;53.296;6.600;2022-12-31T08:56:00;1.75;;;1.65;;
51985;SDS011;38002;53.296;6.600;2022-12-31T09:01:26;2.35;;;2.15;;
51985;SDS011;38002;53.296;6.600;2022-12-31T09:06:38;1.65;;;1.55;;
51985;SDS011;38002;53.296;6.600;2022-12-31T09:12:11;2.95;;;2.65;;
51985;SDS011;38002;53.296;6.600;2022-12-31T09:22:47;3.28;;;3.08;;
51985;SDS011;38002;53.296;6.600;2022-12-31T09:28:04;3.88;;;3.58;;
51985;SDS011;38002;53.296;6.600;2022-12-31T09:33:11;3.70;;;3.45;;
51985;SDS011;38002;53.296;6.600;2022-12-31T09:38:20;3.85;;;2.80;;
51985;SDS011;38002;53.296;6.600;2022-12-31T09:54:08;2.10;;;1.10;;
51985;SDS011;38002;53.296;6.600;2022-12-31T10:25:39;1.50;;;0.93;;
51985;SDS011;38002;53.296;6.600;2022-12-31T10:30:59;3.00;;;0.88;;
51985;SDS011;38002;53.296;6.600;2022-12-31T10:52:21;4.88;;;0.98;;
51985;SDS011;38002;53.296;6.600;2022-12-31T11:40:46;6.70;;;1.40;;
51985;SDS011;38002;53.296;6.600;2022-12-31T11:51:22;5.90;;;1.67;;
51985;SDS011;38002;53.296;6.600;2022-12-31T11:56:31;11.13;;;2.35;;
51985;SDS011;38002;53.296;6.600;2022-12-31T12:06:52;9.90;;;2.05;;
51985;SDS011;38002;53.296;6.600;2022-12-31T12:11:59;5.53;;;1.17;;
51985;SDS011;38002;53.296;6.600;2022-12-31T12:17:07;5.18;;;1.10;;
51985;SDS011;38002;53.296;6.600;2022-12-31T12:22:10;2.90;;;0.98;;
51985;SDS011;38002;53.296;6.600;2022-12-31T12:27:20;6.32;;;1.10;;
51985;SDS011;38002;53.296;6.600;2022-12-31T12:32:27;3.20;;;0.77;;
51985;SDS011;38002;53.296;6.600;2022-12-31T12:37:32;4.57;;;1.30;;
51985;SDS011;38002;53.296;6.600;2022-12-31T12:42:34;6.30;;;1.23;;
51985;SDS011;38002;53.296;6.600;2022-12-31T12:47:35;6.25;;;1.63;;
51985;SDS011;38002;53.296;6.600;2022-12-31T12:57:42;5.45;;;1.73;;
51985;SDS011;38002;53.296;6.600;2022-12-31T13:02:56;15.27;;;2.22;;
51985;SDS011;38002;53.296;6.600;2022-12-31T13:08:29;7.43;;;1.88;;
51985;SDS011;38002;53.296;6.600;2022-12-31T13:13:51;6.35;;;1.42;;
51985;SDS011;38002;53.296;6.600;2022-12-31T13:25:02;9.43;;;1.98;;
51985;SDS011;38002;53.296;6.600;2022-12-31T13:35:32;7.32;;;1.80;;
51985;SDS011;38002;53.296;6.600;2022-12-31T13:40:48;9.63;;;2.30;;
51985;SDS011;38002;53.296;6.600;2022-12-31T13:46:08;6.90;;;2.22;;
51985;SDS011;38002;53.296;6.600;2022-12-31T13:51:21;12.20;;;2.22;;
51985;SDS011;38002;53.296;6.600;2022-12-31T13:56:28;7.05;;;2.05;;
51985;SDS011;38002;53.296;6.600;2022-12-31T14:28:30;3.70;;;1.35;;
51985;SDS011;38002;53.296;6.600;2022-12-31T14:38:57;5.72;;;1.02;;
51985;SDS011;38002;53.296;6.600;2022-12-31T14:50:04;1.63;;;1.27;;
51985;SDS011;38002;53.296;6.600;2022-12-31T15:05:27;2.25;;;1.55;;
51985;SDS011;38002;53.296;6.600;2022-12-31T15:16:08;5.35;;;2.97;;
51985;SDS011;38002;53.296;6.600;2022-12-31T15:21:55;2.23;;;1.40;;
51985;SDS011;38002;53.296;6.600;2022-12-31T15:27:05;2.28;;;1.20;;
51985;SDS011;38002;53.296;6.600;2022-12-31T15:32:21;1.75;;;0.90;;
51985;SDS011;38002;53.296;6.600;2022-12-31T15:37:33;1.42;;;1.38;;
51985;SDS011;38002;53.296;6.600;2022-12-31T15:42:41;2.95;;;1.33;;
51985;SDS011;38002;53.296;6.600;2022-12-31T15:47:49;2.05;;;0.80;;
51985;SDS011;38002;53.296;6.600;2022-12-31T15:52:56;1.65;;;0.93;;
51985;SDS011;38002;53.296;6.600;2022-12-31T15:58:03;0.90;;;0.90;;
51985;SDS011;38002;53.296;6.600;2022-12-31T16:03:09;1.10;;;0.95;;
51985;SDS011;38002;53.296;6.600;2022-12-31T16:08:20;1.50;;;1.40;;
51985;SDS011;38002;53.296;6.600;2022-12-31T16:13:23;5.05;;;1.25;;
51985;SDS011;38002;53.296;6.600;2022-12-31T16:18:34;5.10;;;2.63;;
51985;SDS011;38002;53.296;6.600;2022-12-31T16:23:36;4.30;;;1.95;;
51985;SDS011;38002;53.296;6.600;2022-12-31T16:28:36;6.32;;;2.08;;
51985;SDS011;38002;53.296;6.600;2022-12-31T16:33:37;8.48;;;1.83;;
51985;SDS011;38002;53.296;6.600;2022-12-31T16:38:37;9.40;;;2.60;;
51985;SDS011;38002;53.296;6.600;2022-12-31T16:43:40;11.27;;;2.75;;
51985;SDS011;38002;53.296;6.600;2022-12-31T16:49:03;8.35;;;2.72;;
51985;SDS011;38002;53.296;6.600;2022-12-31T16:54:16;10.20;;;3.28;;
51985;SDS011;38002;53.296;6.600;2022-12-31T16:59:25;17.05;;;5.25;;
51985;SDS011;38002;53.296;6.600;2022-12-31T17:04:25;16.90;;;8.52;;
51985;SDS011;38002;53.296;6.600;2022-12-31T17:09:30;13.98;;;3.13;;
51985;SDS011;38002;53.296;6.600;2022-12-31T17:14:46;6.25;;;3.00;;
51985;SDS011;38002;53.296;6.600;2022-12-31T17:19:49;13.63;;;4.28;;
51985;SDS011;38002;53.296;6.600;2022-12-31T17:25:02;10.88;;;5.00;;
51985;SDS011;38002;53.296;6.600;2022-12-31T17:40:35;14.50;;;5.30;;
51985;SDS011;38002;53.296;6.600;2022-12-31T17:45:37;10.75;;;4.95;;
51985;SDS011;38002;53.296;6.600;2022-12-31T17:50:48;15.43;;;5.60;;
51985;SDS011;38002;53.296;6.600;2022-12-31T18:00:52;12.07;;;7.27;;
51985;SDS011;38002;53.296;6.600;2022-12-31T18:05:52;14.57;;;6.35;;
51985;SDS011;38002;53.296;6.600;2022-12-31T18:10:53;14.43;;;6.47;;
51985;SDS011;38002;53.296;6.600;2022-12-31T18:15:54;13.07;;;5.93;;
51985;SDS011;38002;53.296;6.600;2022-12-31T18:21:02;13.13;;;7.28;;
51985;SDS011;38002;53.296;6.600;2022-12-31T18:26:08;16.38;;;8.15;;
51985;SDS011;38002;53.296;6.600;2022-12-31T18:31:16;14.77;;;8.68;;
51985;SDS011;38002;53.296;6.600;2022-12-31T18:36:20;10.73;;;7.45;;
51985;SDS011;38002;53.296;6.600;2022-12-31T18:41:23;20.90;;;10.02;;
51985;SDS011;38002;53.296;6.600;2022-12-31T18:46:26;31.67;;;16.55;;
51985;SDS011;38002;53.296;6.600;2022-12-31T18:51:27;34.03;;;16.83;;
51985;SDS011;38002;53.296;6.600;2022-12-31T18:56:28;17.35;;;10.98;;
51985;SDS011;38002;53.296;6.600;2022-12-31T19:06:29;21.55;;;10.48;;
51985;SDS011;38002;53.296;6.600;2022-12-31T19:11:29;28.20;;;12.60;;
51985;SDS011;38002;53.296;6.600;2022-12-31T19:16:32;21.05;;;10.90;;
51985;SDS011;38002;53.296;6.600;2022-12-31T19:21:32;16.60;;;8.35;;
51985;SDS011;38002;53.296;6.600;2022-12-31T19:26:32;14.37;;;8.53;;
51985;SDS011;38002;53.296;6.600;2022-12-31T19:31:33;16.23;;;8.75;;
51985;SDS011;38002;53.296;6.600;2022-12-31T19:36:33;19.90;;;9.80;;
51985;SDS011;38002;53.296;6.600;2022-12-31T19:41:34;18.07;;;8.97;;
51985;SDS011;38002;53.296;6.600;2022-12-31T19:46:34;20.48;;;8.85;;
51985;SDS011;38002;53.296;6.600;2022-12-31T19:51:34;21.83;;;8.77;;
51985;SDS011;38002;53.296;6.600;2022-12-31T19:56:35;14.80;;;5.83;;
51985;SDS011;38002;53.296;6.600;2022-12-31T20:01:35;19.97;;;8.70;;
51985;SDS011;38002;53.296;6.600;2022-12-31T20:06:36;11.15;;;5.80;;
51985;SDS011;38002;53.296;6.600;2022-12-31T20:11:37;9.73;;;5.17;;
51985;SDS011;38002;53.296;6.600;2022-12-31T20:16:37;14.67;;;6.27;;
51985;SDS011;38002;53.296;6.600;2022-12-31T20:21:38;19.40;;;7.78;;
51985;SDS011;38002;53.296;6.600;2022-12-31T20:26:39;12.43;;;4.87;;
51985;SDS011;38002;53.296;6.600;2022-12-31T20:31:39;10.80;;;4.20;;
51985;SDS011;38002;53.296;6.600;2022-12-31T20:36:40;12.70;;;5.97;;
51985;SDS011;38002;53.296;6.600;2022-12-31T20:41:40;14.70;;;4.17;;
51985;SDS011;38002;53.296;6.600;2022-12-31T20:46:41;9.48;;;3.95;;
51985;SDS011;38002;53.296;6.600;2022-12-31T20:51:41;14.93;;;4.50;;
51985;SDS011;38002;53.296;6.600;2022-12-31T20:56:42;8.60;;;3.37;;
51985;SDS011;38002;53.296;6.600;2022-12-31T21:01:42;8.37;;;3.93;;
51985;SDS011;38002;53.296;6.600;2022-12-31T21:06:42;7.93;;;4.27;;
51985;SDS011;38002;53.296;6.600;2022-12-31T21:11:43;12.40;;;4.95;;
51985;SDS011;38002;53.296;6.600;2022-12-31T21:17:02;5.85;;;3.22;;
51985;SDS011;38002;53.296;6.600;2022-12-31T21:22:03;10.63;;;4.05;;
51985;SDS011;38002;53.296;6.600;2022-12-31T21:27:03;14.13;;;3.70;;
51985;SDS011;38002;53.296;6.600;2022-12-31T21:32:04;13.80;;;4.50;;
51985;SDS011;38002;53.296;6.600;2022-12-31T21:37:05;12.33;;;4.20;;
51985;SDS011;38002;53.296;6.600;2022-12-31T21:42:05;11.17;;;5.63;;
51985;SDS011;38002;53.296;6.600;2022-12-31T21:47:05;8.30;;;4.33;;
51985;SDS011;38002;53.296;6.600;2022-12-31T21:52:24;11.60;;;4.75;;
51985;SDS011;38002;53.296;6.600;2022-12-31T21:57:25;16.63;;;5.05;;
51985;SDS011;38002;53.296;6.600;2022-12-31T22:02:25;13.97;;;4.50;;
51985;SDS011;38002;53.296;6.600;2022-12-31T22:07:44;16.52;;;4.00;;
51985;SDS011;38002;53.296;6.600;2022-12-31T22:12:45;12.73;;;3.97;;
51985;SDS011;38002;53.296;6.600;2022-12-31T22:17:45;13.40;;;6.03;;
51985;SDS011;38002;53.296;6.600;2022-12-31T22:22:46;12.43;;;4.68;;
51985;SDS011;38002;53.296;6.600;2022-12-31T22:27:47;16.53;;;5.40;;
51985;SDS011;38002;53.296;6.600;2022-12-31T22:32:48;10.88;;;5.05;;
51985;SDS011;38002;53.296;6.600;2022-12-31T22:37:48;15.00;;;5.47;;
51985;SDS011;38002;53.296;6.600;2022-12-31T22:42:49;11.30;;;5.63;;
51985;SDS011;38002;53.296;6.600;2022-12-31T22:47:49;9.87;;;5.47;;
51985;SDS011;38002;53.296;6.600;2022-12-31T22:52:50;11.47;;;4.03;;
51985;SDS011;38002;53.296;6.600;2022-12-31T22:57:50;10.87;;;4.43;;
51985;SDS011;38002;53.296;6.600;2022-12-31T23:02:51;19.38;;;7.00;;
51985;SDS011;38002;53.296;6.600;2022-12-31T23:07:51;27.00;;;9.10;;
51985;SDS011;38002;53.296;6.600;2022-12-31T23:12:51;15.00;;;7.03;;
51985;SDS011;38002;53.296;6.600;2022-12-31T23:17:52;22.70;;;13.17;;
51985;SDS011;38002;53.296;6.600;2022-12-31T23:23:12;31.75;;;18.67;;
51985;SDS011;38002;53.296;6.600;2022-12-31T23:28:17;34.42;;;18.50;;
51985;SDS011;38002;53.296;6.600;2022-12-31T23:33:23;31.90;;;15.02;;
51985;SDS011;38002;53.296;6.600;2022-12-31T23:38:24;33.53;;;14.50;;
51985;SDS011;38002;53.296;6.600;2022-12-31T23:43:25;21.15;;;12.98;;
51985;SDS011;38002;53.296;6.600;2022-12-31T23:48:25;26.77;;;13.60;;
51985;SDS011;38002;53.296;6.600;2022-12-31T23:53:25;16.40;;;9.20;;
51985;SDS011;38002;53.296;6.600;2022-12-31T23:58:26;16.53;;;7.37;;
